Joiner, AR (72350)

7:42 PM CDT on September 23, 2014 (GMT -0500)
Lucy | Change Station
CLOSE
Current Station
Personal Weather Station
Location: Millington, TN
Elevation: 276 ft
Nearby Weather Stations

Elev 276 ft 35.31 °N, 89.93 °W | Updated 14 minutes ago

Clear
Clear
64.8 °F
Feels Like 64.8 °F
N
0.0
Wind Variable Wind from NW
Gusts 0.0 mph

Today
High -- | Low -- °F
--% Chance of Precip.
Yesterday
High -- | Low -- °F
Precip. -- in
6:49 AM 6:55 PM
Waning Crescent, 0% visible
Pressure 30.16 in
Visibility 10.0 miles
Clouds Few 15000 ft
Dew Point 50 °F
Humidity 60%
Rainfall 0.00 in
Snow Depth Not available.
UV 0 out of 12
Pollen 7.40 out of 12
Air Quality Not available.
Flu Activity Not available.
METAR KNQA 232350Z 04003KT 10SM FEW150 23/11 A3016

More Conditions Fewer Conditions

Pressure 30.16 in
Visibility 10.0 miles
Clouds Few 15000 ft
Dew Point 50 °F
Humidity 60%
Rainfall 0.00 in
Snow Depth Not available.
UV 0 out of 12
Pollen 7.40 out of 12
Air Quality Not available.
Flu Activity Not available.
METAR KNQA 232350Z 04003KT 10SM FEW150 23/11 A3016

More Conditions Fewer Conditions

10-Day Weather Forecast

Almanac

Astronomy

Sep. 23, 2014 Rise Set
Actual Time 6:49 AM CDT 6:55 PM CDT
Civil Twilight 6:23 AM CDT 7:21 PM CDT
Nautical Twilight 5:54 AM CDT 7:50 PM CDT
Astronomical Twilight 5:24 AM CDT 8:20 PM CDT
Moon 6:14 AM CDT (9/23) 6:35 PM CDT (9/23)
Length of Visible Light 12h 57m
Length of Day
12h 06m
Tomorrow will be 2m 13s shorter.
Waning Crescent, 0% of the Moon is Illuminated
Today
Waning Crescent
Sep 24
New
Oct 1
First Quarter
Oct 8
Full
Oct 15
Last Quarter

Today's Extremes

State Highs State Lows

Community

WunderPhotos

Upload Photos

1,755,834 photos uploaded!

WunderBlogs® & News

Nearby

Snow Depth

Station Depth Elevation
No new snow has been reported.

Earthquake Activity

City Distance Mag. Time & Date
No recent earthquake activity has been reported nearby.
Minimum magnitude displayed is 2.5.

Coastal Water Temperatures

Place Temperature
No Stations Reporting

Nearby Weather Stations